Time,TemperatureF,DewpointF,PressureIn,WindDirection,WindDirectionDegrees,WindSpeedMPH,WindSpeedGustMPH,Humidity,HourlyPrecipIn,Conditions,Clouds,dailyrainin,SolarRadiationWatts/m^2,SoftwareType,DateUTC
2013-08-20 00:00:00,74.9,40.9,-100.00,West,271,2.2,6.7,29,0.00,,,-99.99,1.0,HOBO +U30 +Weather +,2013-08-20 06:00:00,
2013-08-20 00:05:00,74.5,39.5,-100.00,South,191,5.1,7.8,28,0.00,,,-99.99,1.0,HOBO +U30 +Weather +,2013-08-20 06:05:00,
2013-08-20 00:10:00,73.9,39.9,-100.00,SSW,194,4.0,6.7,29,0.00,,,-99.99,1.0,HOBO +U30 +Weather +,2013-08-20 06:10:00,
2013-08-20 00:15:00,73.5,39.9,-100.00,SSW,195,4.0,5.6,29,0.00,,,-99.99,1.0,HOBO +U30 +Weather +,2013-08-20 06:15:00,
2013-08-20 00:20:00,73.1,39.8,-100.00,SSW,198,2.2,4.5,30,0.00,,,-99.99,1.0,HOBO +U30 +Weather +,2013-08-20 06:20:00,
2013-08-20 00:25:00,72.6,39.6,-100.00,South,175,2.9,4.0,30,0.00,,,-99.99,1.0,HOBO +U30 +Weather +,2013-08-20 06:25:00,
2013-08-20 00:30:00,72.3,39.2,-100.00,South,181,2.9,5.1,30,0.00,,,-99.99,1.0,HOBO +U30 +Weather +,2013-08-20 06:30:00,
2013-08-20 00:35:00,72.1,39.2,-100.00,SSW,194,4.5,6.3,30,0.00,,,-99.99,1.0,HOBO +U30 +Weather +,2013-08-20 06:35:00,
2013-08-20 00:40:00,72.1,39.1,-100.00,SSW,198,2.9,4.5,30,0.00,,,-99.99,1.0,HOBO +U30 +Weather +,2013-08-20 06:40:00,
2013-08-20 00:45:00,72.1,38.9,-100.00,SSW,205,2.2,4.0,29,0.00,,,-99.99,1.0,HOBO +U30 +Weather +,2013-08-20 06:45:00,
2013-08-20 00:50:00,72.1,38.7,-100.00,SSW,211,0.7,2.9,29,0.00,,,-99.99,1.0,HOBO +U30 +Weather +,2013-08-20 06:50:00,
2013-08-20 00:55:00,72.0,39.2,-100.00,SW,232,1.8,4.0,30,0.00,,,-99.99,1.0,HOBO +U30 +Weather +,2013-08-20 06:55:00,
2013-08-20 01:00:00,71.7,39.9,-100.00,WSW,244,1.1,2.9,31,0.00,,,-99.99,1.0,HOBO +U30 +Weather +,2013-08-20 07:00:00,
2013-08-20 01:05:00,71.6,40.7,-100.00,WSW,244,0.7,2.2,32,0.00,,,-99.99,1.0,HOBO +U30 +Weather +,2013-08-20 07:05:00,
2013-08-20 01:10:00,71.2,41.1,-100.00,WSW,244,0.7,2.2,33,0.00,,,-99.99,1.0,HOBO +U30 +Weather +,2013-08-20 07:10:00,
2013-08-20 01:15:00,71.4,41.2,-100.00,SW,234,1.8,3.4,33,0.00,,,-99.99,1.0,HOBO +U30 +Weather +,2013-08-20 07:15:00,
2013-08-20 01:20:00,71.3,41.3,-100.00,SSW,205,0.0,1.8,33,0.00,,,-99.99,1.0,HOBO +U30 +Weather +,2013-08-20 07:20:00,
2013-08-20 01:25:00,71.1,41.3,-100.00,SW,233,0.0,2.2,34,0.00,,,-99.99,1.0,HOBO +U30 +Weather +,2013-08-20 07:25:00,
2013-08-20 01:30:00,70.0,41.9,-100.00,SSW,212,0.7,3.4,36,0.00,,,-99.99,1.0,HOBO +U30 +Weather +,2013-08-20 07:30:00,
2013-08-20 01:35:00,69.1,42.0,-100.00,South,177,4.0,6.3,37,0.00,,,-99.99,1.0,HOBO +U30 +Weather +,2013-08-20 07:35:00,
2013-08-20 01:40:00,68.7,42.1,-100.00,SSW,195,2.9,4.5,37,0.00,,,-99.99,1.0,HOBO +U30 +Weather +,2013-08-20 07:40:00,
2013-08-20 01:45:00,68.1,42.0,-100.00,South,184,1.8,2.9,38,0.00,,,-99.99,1.0,HOBO +U30 +Weather +,2013-08-20 07:45:00,
2013-08-20 01:58:00,68.2,41.8,-100.00,South,190,3.4,5.6,38,0.00,,,-99.99,1.0,HOBO +U30 +Weather +,2013-08-20 07:58:00,
2013-08-20 02:00:00,67.8,42.1,-100.00,SSW,202,0.0,1.8,39,0.00,,,-99.99,1.0,HOBO +U30 +Weather +,2013-08-20 08:00:00,
2013-08-20 02:05:00,68.1,42.5,-100.00,SSW,202,0.7,2.9,39,0.00,,,-99.99,1.0,HOBO +U30 +Weather +,2013-08-20 08:05:00,
2013-08-20 02:10:00,68.0,42.6,-100.00,SSW,198,0.0,1.8,39,0.00,,,-99.99,1.0,HOBO +U30 +Weather +,2013-08-20 08:10:00,
2013-08-20 02:15:00,68.0,43.7,-100.00,South,191,0.0,1.8,41,0.00,,,-99.99,1.0,HOBO +U30 +Weather +,2013-08-20 08:15:00,
2013-08-20 02:20:00,68.3,43.5,-100.00,South,191,0.7,1.8,40,0.00,,,-99.99,1.0,HOBO +U30 +Weather +,2013-08-20 08:20:00,
2013-08-20 02:25:00,68.0,43.9,-100.00,SSW,192,0.0,1.1,41,0.00,,,-99.99,1.0,HOBO +U30 +Weather +,2013-08-20 08:25:00,
2013-08-20 02:30:00,68.1,44.2,-100.00,SW,216,1.1,2.9,42,0.00,,,-99.99,1.0,HOBO +U30 +Weather +,2013-08-20 08:30:00,
2013-08-20 02:35:00,67.3,44.5,-100.00,West,279,1.8,4.0,43,0.00,,,-99.99,1.0,HOBO +U30 +Weather +,2013-08-20 08:35:00,
2013-08-20 02:40:00,66.7,44.7,-100.00,West,281,2.2,4.5,45,0.00,,,-99.99,1.0,HOBO +U30 +Weather +,2013-08-20 08:40:00,
2013-08-20 02:45:00,67.0,44.6,-100.00,West,263,4.0,5.6,44,0.00,,,-99.99,1.0,HOBO +U30 +Weather +,2013-08-20 08:45:00,
2013-08-20 02:50:00,67.1,44.3,-100.00,West,272,2.2,4.5,43,0.00,,,-99.99,1.0,HOBO +U30 +Weather +,2013-08-20 08:50:00,
2013-08-20 02:55:00,67.2,43.9,-100.00,West,272,2.2,4.0,43,0.00,,,-99.99,1.0,HOBO +U30 +Weather +,2013-08-20 08:55:00,
2013-08-20 03:00:00,67.3,43.6,-100.00,WSW,258,1.1,2.9,42,0.00,,,-99.99,1.0,HOBO +U30 +Weather +,2013-08-20 09:00:00,
2013-08-20 03:05:00,67.4,44.0,-100.00,SW,234,1.1,3.4,42,0.00,,,-99.99,1.0,HOBO +U30 +Weather +,2013-08-20 09:05:00,
2013-08-20 03:10:00,67.0,44.3,-100.00,SW,234,0.0,1.8,43,0.00,,,-99.99,1.0,HOBO +U30 +Weather +,2013-08-20 09:10:00,
2013-08-20 03:15:00,67.1,44.4,-100.00,WSW,243,0.7,2.9,43,0.00,,,-99.99,1.0,HOBO +U30 +Weather +,2013-08-20 09:15:00,
2013-08-20 03:20:00,67.2,44.2,-100.00,WSW,254,1.8,3.4,43,0.00,,,-99.99,1.0,HOBO +U30 +Weather +,2013-08-20 09:20:00,
2013-08-20 03:25:00,67.6,44.1,-100.00,SW,234,2.2,4.0,42,0.00,,,-99.99,1.0,HOBO +U30 +Weather +,2013-08-20 09:25:00,
2013-08-20 03:30:00,67.7,43.7,-100.00,SW,227,1.8,4.0,41,0.00,,,-99.99,1.0,HOBO +U30 +Weather +,2013-08-20 09:30:00,
2013-08-20 03:35:00,67.5,43.8,-100.00,SW,226,1.1,2.9,42,0.00,,,-99.99,1.0,HOBO +U30 +Weather +,2013-08-20 09:35:00,
2013-08-20 03:40:00,67.5,43.6,-100.00,WSW,237,2.2,4.0,42,0.00,,,-99.99,1.0,HOBO +U30 +Weather +,2013-08-20 09:40:00,
2013-08-20 03:45:00,67.2,44.0,-100.00,WSW,241,2.2,4.0,42,0.00,,,-99.99,1.0,HOBO +U30 +Weather +,2013-08-20 09:45:00,
2013-08-20 03:56:00,66.5,43.9,-100.00,WSW,258,0.7,2.9,43,0.00,,,-99.99,1.0,HOBO +U30 +Weather +,2013-08-20 09:56:00,
2013-08-20 04:00:00,66.8,44.2,-100.00,WSW,240,2.2,4.0,44,0.00,,,-99.99,1.0,HOBO +U30 +Weather +,2013-08-20 10:00:00,
2013-08-20 04:05:00,65.9,44.2,-100.00,South,187,1.8,3.4,45,0.00,,,-99.99,1.0,HOBO +U30 +Weather +,2013-08-20 10:05:00,
2013-08-20 04:10:00,65.2,44.6,-100.00,South,177,2.2,5.1,47,0.00,,,-99.99,1.0,HOBO +U30 +Weather +,2013-08-20 10:10:00,
2013-08-20 04:15:00,65.3,44.4,-100.00,SSW,192,3.4,4.5,46,0.00,,,-99.99,1.0,HOBO +U30 +Weather +,2013-08-20 10:15:00,
2013-08-20 04:20:00,65.3,44.2,-100.00,SSW,197,2.2,5.6,46,0.00,,,-99.99,1.0,HOBO +U30 +Weather +,2013-08-20 10:20:00,
2013-08-20 04:25:00,64.8,43.6,-100.00,South,177,1.1,4.0,46,0.00,,,-99.99,1.0,HOBO +U30 +Weather +,2013-08-20 10:25:00,
2013-08-20 04:30:00,64.5,44.4,-100.00,SSW,201,2.2,4.0,48,0.00,,,-99.99,1.0,HOBO +U30 +Weather +,2013-08-20 10:30:00,
2013-08-20 04:35:00,64.9,44.9,-100.00,SW,223,2.2,5.1,48,0.00,,,-99.99,1.0,HOBO +U30 +Weather +,2013-08-20 10:35:00,
2013-08-20 04:40:00,65.1,45.0,-100.00,WSW,244,0.7,2.9,48,0.00,,,-99.99,1.0,HOBO +U30 +Weather +,2013-08-20 10:40:00,
2013-08-20 04:45:00,64.7,45.1,-100.00,WSW,244,0.7,3.4,49,0.00,,,-99.99,1.0,HOBO +U30 +Weather +,2013-08-20 10:45:00,
2013-08-20 04:50:00,64.7,46.1,-100.00,WSW,241,1.1,3.4,50,0.00,,,-99.99,1.0,HOBO +U30 +Weather +,2013-08-20 10:50:00,
2013-08-20 04:55:00,64.0,45.1,-100.00,NW,305,0.7,4.0,50,0.00,,,-99.99,1.0,HOBO +U30 +Weather +,2013-08-20 10:55:00,
2013-08-20 05:00:00,63.6,44.9,-100.00,NW,326,0.0,2.2,50,0.00,,,-99.99,1.0,HOBO +U30 +Weather +,2013-08-20 11:00:00,
2013-08-20 05:05:00,63.8,44.3,-100.00,South,184,0.7,3.4,48,0.00,,,-99.99,1.0,HOBO +U30 +Weather +,2013-08-20 11:05:00,
2013-08-20 05:10:00,64.0,43.0,-100.00,SSW,198,0.7,2.9,46,0.00,,,-99.99,1.0,HOBO +U30 +Weather +,2013-08-20 11:10:00,
2013-08-20 05:15:00,64.3,41.1,-100.00,South,173,1.8,3.4,42,0.00,,,-99.99,1.0,HOBO +U30 +Weather +,2013-08-20 11:15:00,
2013-08-20 05:20:00,63.9,41.3,-100.00,SSE,160,1.1,4.5,43,0.00,,,-99.99,1.0,HOBO +U30 +Weather +,2013-08-20 11:20:00,
2013-08-20 05:25:00,63.9,40.3,-100.00,South,173,2.2,5.1,41,0.00,,,-99.99,1.0,HOBO +U30 +Weather +,2013-08-20 11:25:00,
2013-08-20 05:30:00,64.0,40.5,-100.00,SSW,198,3.4,5.6,41,0.00,,,-99.99,1.0,HOBO +U30 +Weather +,2013-08-20 11:30:00,
2013-08-20 05:35:00,64.5,40.6,-100.00,SW,216,2.9,6.3,41,0.00,,,-99.99,1.0,HOBO +U30 +Weather +,2013-08-20 11:35:00,
2013-08-20 05:40:00,64.8,40.8,-100.00,SW,218,4.0,6.3,41,0.00,,,-99.99,1.0,HOBO +U30 +Weather +,2013-08-20 11:40:00,
2013-08-20 05:54:00,64.3,40.9,-100.00,SSW,211,3.4,5.6,42,0.00,,,-99.99,1.0,HOBO +U30 +Weather +,2013-08-20 11:54:00,
2013-08-20 05:55:00,63.3,41.5,-100.00,SSW,195,2.2,6.3,44,0.00,,,-99.99,1.0,HOBO +U30 +Weather +,2013-08-20 11:55:00,
2013-08-20 06:00:00,63.3,41.7,-100.00,SSW,205,5.6,8.5,45,0.00,,,-99.99,1.0,HOBO +U30 +Weather +,2013-08-20 12:00:00,
2013-08-20 06:05:00,63.0,41.4,-100.00,SSW,197,2.9,6.7,45,0.00,,,-99.99,1.0,HOBO +U30 +Weather +,2013-08-20 12:05:00,
2013-08-20 06:10:00,62.7,41.3,-100.00,South,184,0.0,1.8,45,0.00,,,-99.99,2.0,HOBO +U30 +Weather +,2013-08-20 12:10:00,
2013-08-20 06:15:00,63.0,40.7,-100.00,South,180,1.1,3.4,43,0.00,,,-99.99,2.0,HOBO +U30 +Weather +,2013-08-20 12:15:00,
2013-08-20 06:20:00,63.1,41.0,-100.00,South,171,2.2,4.0,44,0.00,,,-99.99,2.0,HOBO +U30 +Weather +,2013-08-20 12:20:00,
2013-08-20 06:25:00,62.9,41.5,-100.00,South,190,1.8,3.4,45,0.00,,,-99.99,4.0,HOBO +U30 +Weather +,2013-08-20 12:25:00,
2013-08-20 06:30:00,63.0,41.8,-100.00,SSW,194,4.0,6.3,45,0.00,,,-99.99,9.0,HOBO +U30 +Weather +,2013-08-20 12:30:00,
2013-08-20 06:35:00,63.0,42.1,-100.00,SSW,211,1.8,4.5,46,0.00,,,-99.99,14.0,HOBO +U30 +Weather +,2013-08-20 12:35:00,
2013-08-20 06:40:00,63.6,42.2,-100.00,SW,223,2.9,5.1,45,0.00,,,-99.99,21.0,HOBO +U30 +Weather +,2013-08-20 12:40:00,
2013-08-20 06:45:00,63.7,43.2,-100.00,WSW,257,3.4,6.3,47,0.00,,,-99.99,28.0,HOBO +U30 +Weather +,2013-08-20 12:45:00,
2013-08-20 06:50:00,63.4,43.3,-100.00,West,261,0.0,2.9,47,0.00,,,-99.99,33.0,HOBO +U30 +Weather +,2013-08-20 12:50:00,
2013-08-20 06:55:00,63.6,42.9,-100.00,SW,234,0.0,2.2,46,0.00,,,-99.99,42.0,HOBO +U30 +Weather +,2013-08-20 12:55:00,
2013-08-20 07:00:00,64.1,43.8,-100.00,SW,223,0.7,2.9,47,0.00,,,-99.99,53.0,HOBO +U30 +Weather +,2013-08-20 13:00:00,
2013-08-20 07:05:00,63.3,43.8,-100.00,WSW,257,1.1,4.0,49,0.00,,,-99.99,66.0,HOBO +U30 +Weather +,2013-08-20 13:05:00,
2013-08-20 07:10:00,64.0,44.3,-100.00,West,279,0.0,1.1,48,0.00,,,-99.99,78.0,HOBO +U30 +Weather +,2013-08-20 13:10:00,
2013-08-20 07:15:00,63.9,43.4,-100.00,West,263,0.0,1.8,47,0.00,,,-99.99,89.0,HOBO +U30 +Weather +,2013-08-20 13:15:00,
2013-08-20 07:20:00,63.5,42.9,-100.00,South,188,1.1,4.0,46,0.00,,,-99.99,101.0,HOBO +U30 +Weather +,2013-08-20 13:20:00,
2013-08-20 07:25:00,63.5,43.0,-100.00,SE,131,1.1,2.9,47,0.00,,,-99.99,112.0,HOBO +U30 +Weather +,2013-08-20 13:25:00,
2013-08-20 07:30:00,64.1,43.4,-100.00,SE,132,0.7,2.2,46,0.00,,,-99.99,124.0,HOBO +U30 +Weather +,2013-08-20 13:30:00,
2013-08-20 07:35:00,64.4,43.6,-100.00,SSE,167,1.8,3.4,46,0.00,,,-99.99,137.0,HOBO +U30 +Weather +,2013-08-20 13:35:00,
2013-08-20 07:40:00,65.3,44.0,-100.00,SSW,194,0.7,1.8,45,0.00,,,-99.99,151.0,HOBO +U30 +Weather +,2013-08-20 13:40:00,
2013-08-20 07:53:00,65.6,44.0,-100.00,SSW,194,1.8,4.0,45,0.00,,,-99.99,163.0,HOBO +U30 +Weather +,2013-08-20 13:53:00,
2013-08-20 07:55:00,66.3,43.9,-100.00,SSW,195,1.1,2.9,44,0.00,,,-99.99,187.0,HOBO +U30 +Weather +,2013-08-20 13:55:00,
2013-08-20 08:00:00,67.2,44.1,-100.00,SSW,199,1.1,2.2,43,0.00,,,-99.99,198.0,HOBO +U30 +Weather +,2013-08-20 14:00:00,
2013-08-20 08:05:00,67.2,44.4,-100.00,West,263,2.2,4.0,43,0.00,,,-99.99,211.0,HOBO +U30 +Weather +,2013-08-20 14:05:00,
2013-08-20 08:10:00,67.6,45.2,-100.00,West,268,1.1,4.5,44,0.00,,,-99.99,226.0,HOBO +U30 +Weather +,2013-08-20 14:10:00,
2013-08-20 08:15:00,67.6,44.9,-100.00,West,268,1.8,4.0,43,0.00,,,-99.99,242.0,HOBO +U30 +Weather +,2013-08-20 14:15:00,
2013-08-20 08:20:00,67.5,43.8,-100.00,West,281,1.8,5.1,42,0.00,,,-99.99,256.0,HOBO +U30 +Weather +,2013-08-20 14:20:00,
2013-08-20 08:25:00,67.2,44.3,-100.00,WSW,257,3.4,5.1,43,0.00,,,-99.99,269.0,HOBO +U30 +Weather +,2013-08-20 14:25:00,
2013-08-20 08:30:00,68.0,44.3,-100.00,WSW,251,2.9,4.5,42,0.00,,,-99.99,281.0,HOBO +U30 +Weather +,2013-08-20 14:30:00,
2013-08-20 08:35:00,69.0,45.2,-100.00,SW,215,1.8,4.5,42,0.00,,,-99.99,293.0,HOBO +U30 +Weather +,2013-08-20 14:35:00,
2013-08-20 08:40:00,69.4,44.3,-100.00,SSW,199,2.2,4.5,40,0.00,,,-99.99,304.0,HOBO +U30 +Weather +,2013-08-20 14:40:00,
2013-08-20 08:50:00,69.3,44.2,-100.00,SW,229,3.4,4.5,40,0.00,,,-99.99,317.0,HOBO +U30 +Weather +,2013-08-20 14:50:00,
2013-08-20 08:55:00,70.3,45.4,-100.00,SSW,194,2.2,4.5,40,0.00,,,-99.99,346.0,HOBO +U30 +Weather +,2013-08-20 14:55:00,
2013-08-20 09:00:00,71.3,45.5,-100.00,SSW,211,1.8,4.5,39,0.00,,,-99.99,362.0,HOBO +U30 +Weather +,2013-08-20 15:00:00,
2013-08-20 09:05:00,71.9,45.8,-100.00,SSW,192,1.8,4.0,39,0.00,,,-99.99,374.0,HOBO +U30 +Weather +,2013-08-20 15:05:00,
2013-08-20 09:10:00,72.1,46.3,-100.00,SSW,199,1.8,3.4,39,0.00,,,-99.99,386.0,HOBO +U30 +Weather +,2013-08-20 15:10:00,
2013-08-20 09:15:00,72.4,46.2,-100.00,SSW,197,1.1,4.0,39,0.00,,,-99.99,398.0,HOBO +U30 +Weather +,2013-08-20 15:15:00,
2013-08-20 09:20:00,72.9,46.5,-100.00,South,191,1.1,4.5,39,0.00,,,-99.99,412.0,HOBO +U30 +Weather +,2013-08-20 15:20:00,
2013-08-20 09:25:00,72.9,45.9,-100.00,South,188,2.2,4.5,38,0.00,,,-99.99,424.0,HOBO +U30 +Weather +,2013-08-20 15:25:00,
2013-08-20 09:30:00,72.9,45.7,-100.00,SSW,192,3.4,5.1,37,0.00,,,-99.99,433.0,HOBO +U30 +Weather +,2013-08-20 15:30:00,
2013-08-20 09:35:00,73.5,46.4,-100.00,SSW,197,2.9,5.1,38,0.00,,,-99.99,443.0,HOBO +U30 +Weather +,2013-08-20 15:35:00,
2013-08-20 09:50:00,74.2,46.1,-100.00,SSW,197,2.2,5.1,36,0.00,,,-99.99,458.0,HOBO +U30 +Weather +,2013-08-20 15:50:00,
2013-08-20 09:55:00,77.2,47.0,-100.00,SSW,201,0.7,3.4,34,0.00,,,-99.99,492.0,HOBO +U30 +Weather +,2013-08-20 15:55:00,
2013-08-20 10:00:00,77.3,46.5,-100.00,WNW,284,1.1,4.0,33,0.00,,,-99.99,501.0,HOBO +U30 +Weather +,2013-08-20 16:00:00,
2013-08-20 10:05:00,76.6,45.3,-100.00,WSW,250,1.8,3.4,32,0.00,,,-99.99,512.0,HOBO +U30 +Weather +,2013-08-20 16:05:00,
2013-08-20 10:10:00,78.0,45.9,-100.00,WSW,244,0.0,2.2,32,0.00,,,-99.99,526.0,HOBO +U30 +Weather +,2013-08-20 16:10:00,
2013-08-20 10:15:00,78.3,44.6,-100.00,West,277,1.1,3.4,30,0.00,,,-99.99,532.0,HOBO +U30 +Weather +,2013-08-20 16:15:00,
2013-08-20 10:20:00,78.7,44.7,-100.00,WNW,288,0.7,2.9,30,0.00,,,-99.99,546.0,HOBO +U30 +Weather +,2013-08-20 16:20:00,
2013-08-20 10:25:00,79.5,44.4,-100.00,WNW,298,0.7,2.9,28,0.00,,,-99.99,553.0,HOBO +U30 +Weather +,2013-08-20 16:25:00,
2013-08-20 10:30:00,81.4,44.6,-100.00,West,268,0.7,2.9,27,0.00,,,-99.99,564.0,HOBO +U30 +Weather +,2013-08-20 16:30:00,
2013-08-20 10:35:00,80.7,43.6,-100.00,WNW,289,1.8,4.0,26,0.00,,,-99.99,579.0,HOBO +U30 +Weather +,2013-08-20 16:35:00,
2013-08-20 10:48:00,82.2,44.9,-100.00,WSW,253,0.7,2.2,27,0.00,,,-99.99,588.0,HOBO +U30 +Weather +,2013-08-20 16:48:00,
2013-08-20 10:50:00,83.0,44.1,-100.00,NNW,338,1.1,3.4,25,0.00,,,-99.99,609.0,HOBO +U30 +Weather +,2013-08-20 16:50:00,
2013-08-20 10:55:00,84.4,44.8,-100.00,NW,320,0.7,2.9,25,0.00,,,-99.99,619.0,HOBO +U30 +Weather +,2013-08-20 16:55:00,
2013-08-20 11:00:00,85.7,43.4,-100.00,NW,323,0.7,3.4,22,0.00,,,-99.99,631.0,HOBO +U30 +Weather +,2013-08-20 17:00:00,
2013-08-20 11:05:00,86.4,42.9,-100.00,NNE,25,1.1,5.1,21,0.00,,,-99.99,639.0,HOBO +U30 +Weather +,2013-08-20 17:05:00,
2013-08-20 11:10:00,86.8,42.4,-100.00,NNE,25,0.7,2.9,21,0.00,,,-99.99,651.0,HOBO +U30 +Weather +,2013-08-20 17:10:00,
2013-08-20 11:15:00,86.5,41.9,-100.00,NNE,27,1.8,4.5,20,0.00,,,-99.99,654.0,HOBO +U30 +Weather +,2013-08-20 17:15:00,
2013-08-20 11:20:00,85.4,40.4,-100.00,NE,35,2.9,5.6,20,0.00,,,-99.99,658.0,HOBO +U30 +Weather +,2013-08-20 17:20:00,
2013-08-20 11:25:00,87.7,42.0,-100.00,ENE,58,1.1,5.1,20,0.00,,,-99.99,664.0,HOBO +U30 +Weather +,2013-08-20 17:25:00,
2013-08-20 11:30:00,86.8,39.5,-100.00,NE,48,3.4,6.7,18,0.00,,,-99.99,677.0,HOBO +U30 +Weather +,2013-08-20 17:30:00,
2013-08-20 11:35:00,85.0,38.4,-100.00,NE,44,5.6,10.1,19,0.00,,,-99.99,689.0,HOBO +U30 +Weather +,2013-08-20 17:35:00,
2013-08-20 11:47:00,85.9,38.5,-100.00,NE,44,4.0,8.9,18,0.00,,,-99.99,698.0,HOBO +U30 +Weather +,2013-08-20 17:47:00,
2013-08-20 11:50:00,86.6,39.1,-100.00,North,355,3.4,9.6,18,0.00,,,-99.99,722.0,HOBO +U30 +Weather +,2013-08-20 17:50:00,
2013-08-20 11:55:00,89.3,40.5,-100.00,North,350,1.1,5.6,18,0.00,,,-99.99,719.0,HOBO +U30 +Weather +,2013-08-20 17:55:00,
2013-08-20 12:00:00,87.1,39.1,-100.00,NNE,21,3.4,7.8,18,0.00,,,-99.99,713.0,HOBO +U30 +Weather +,2013-08-20 18:00:00,
2013-08-20 12:05:00,87.7,39.4,-100.00,NE,44,3.4,7.4,18,0.00,,,-99.99,722.0,HOBO +U30 +Weather +,2013-08-20 18:05:00,
2013-08-20 12:10:00,86.7,38.7,-100.00,NNE,32,4.0,7.8,18,0.00,,,-99.99,722.0,HOBO +U30 +Weather +,2013-08-20 18:10:00,
2013-08-20 12:15:00,87.8,39.2,-100.00,NNE,14,2.9,7.4,18,0.00,,,-99.99,728.0,HOBO +U30 +Weather +,2013-08-20 18:15:00,
2013-08-20 12:20:00,90.2,39.7,-100.00,NNW,348,0.7,4.0,17,0.00,,,-99.99,733.0,HOBO +U30 +Weather +,2013-08-20 18:20:00,
2013-08-20 12:25:00,91.6,39.1,-100.00,NNE,18,1.1,4.0,16,0.00,,,-99.99,739.0,HOBO +U30 +Weather +,2013-08-20 18:25:00,
2013-08-20 12:30:00,88.0,38.5,-100.00,NE,46,4.0,7.4,17,0.00,,,-99.99,738.0,HOBO +U30 +Weather +,2013-08-20 18:30:00,
2013-08-20 12:35:00,87.8,37.7,-100.00,ENE,66,3.4,7.4,17,0.00,,,-99.99,737.0,HOBO +U30 +Weather +,2013-08-20 18:35:00,
2013-08-20 12:47:00,89.9,37.2,-100.00,ENE,59,1.8,5.6,15,0.00,,,-99.99,741.0,HOBO +U30 +Weather +,2013-08-20 18:47:00,
2013-08-20 12:50:00,88.3,36.3,-100.00,SSE,163,4.5,7.8,15,0.00,,,-99.99,748.0,HOBO +U30 +Weather +,2013-08-20 18:50:00,
2013-08-20 12:55:00,88.7,36.6,-100.00,South,184,4.5,7.8,15,0.00,,,-99.99,749.0,HOBO +U30 +Weather +,2013-08-20 18:55:00,
2013-08-20 13:00:00,89.0,36.1,-100.00,SW,218,2.9,5.6,15,0.00,,,-99.99,754.0,HOBO +U30 +Weather +,2013-08-20 19:00:00,
2013-08-20 13:05:00,88.3,34.8,-100.00,SSE,168,7.4,12.3,15,0.00,,,-99.99,749.0,HOBO +U30 +Weather +,2013-08-20 19:05:00,
2013-08-20 13:10:00,87.9,33.5,-100.00,SSE,164,7.4,11.9,14,0.00,,,-99.99,748.0,HOBO +U30 +Weather +,2013-08-20 19:10:00,
2013-08-20 13:15:00,88.5,33.5,-100.00,SE,146,5.1,8.5,14,0.00,,,-99.99,753.0,HOBO +U30 +Weather +,2013-08-20 19:15:00,
2013-08-20 13:20:00,89.8,33.9,-100.00,ESE,102,3.4,7.4,13,0.00,,,-99.99,753.0,HOBO +U30 +Weather +,2013-08-20 19:20:00,
2013-08-20 13:25:00,90.3,33.6,-100.00,South,174,6.3,10.1,13,0.00,,,-99.99,759.0,HOBO +U30 +Weather +,2013-08-20 19:25:00,
2013-08-20 13:30:00,90.1,32.9,-100.00,South,188,6.3,11.2,13,0.00,,,-99.99,751.0,HOBO +U30 +Weather +,2013-08-20 19:30:00,
2013-08-20 13:35:00,89.8,33.5,-100.00,SSW,202,4.5,8.9,13,0.00,,,-99.99,746.0,HOBO +U30 +Weather +,2013-08-20 19:35:00,
2013-08-20 13:45:00,90.8,34.3,-100.00,SSW,192,3.4,8.9,13,0.00,,,-99.99,746.0,HOBO +U30 +Weather +,2013-08-20 19:45:00,
2013-08-20 13:50:00,91.6,34.4,-100.00,SSW,201,2.9,9.6,13,0.00,,,-99.99,743.0,HOBO +U30 +Weather +,2013-08-20 19:50:00,
2013-08-20 13:55:00,91.5,34.7,-100.00,SW,225,2.9,6.3,13,0.00,,,-99.99,742.0,HOBO +U30 +Weather +,2013-08-20 19:55:00,
2013-08-20 14:00:00,92.0,34.9,-100.00,SW,218,3.4,7.4,13,0.00,,,-99.99,734.0,HOBO +U30 +Weather +,2013-08-20 20:00:00,
2013-08-20 14:05:00,91.6,34.4,-100.00,SSW,197,3.4,8.5,13,0.00,,,-99.99,729.0,HOBO +U30 +Weather +,2013-08-20 20:05:00,
2013-08-20 14:10:00,90.6,34.0,-100.00,South,178,5.6,9.6,13,0.00,,,-99.99,722.0,HOBO +U30 +Weather +,2013-08-20 20:10:00,
2013-08-20 14:15:00,91.8,34.4,-100.00,SSW,206,4.5,8.5,13,0.00,,,-99.99,714.0,HOBO +U30 +Weather +,2013-08-20 20:15:00,
2013-08-20 14:20:00,91.3,34.0,-100.00,SSW,204,5.6,9.6,13,0.00,,,-99.99,718.0,HOBO +U30 +Weather +,2013-08-20 20:20:00,
2013-08-20 14:25:00,91.0,33.6,-100.00,SSW,194,5.6,10.7,13,0.00,,,-99.99,717.0,HOBO +U30 +Weather +,2013-08-20 20:25:00,
2013-08-20 14:30:00,91.6,33.9,-100.00,SSW,209,3.4,5.6,13,0.00,,,-99.99,709.0,HOBO +U30 +Weather +,2013-08-20 20:30:00,
2013-08-20 14:44:00,91.3,33.4,-100.00,SSE,167,5.6,10.1,12,0.00,,,-99.99,702.0,HOBO +U30 +Weather +,2013-08-20 20:44:00,
2013-08-20 14:45:00,94.2,34.9,-100.00,South,178,0.0,2.2,12,0.00,,,-99.99,691.0,HOBO +U30 +Weather +,2013-08-20 20:45:00,
2013-08-20 14:50:00,93.3,34.4,-100.00,SSW,192,2.9,6.7,12,0.00,,,-99.99,681.0,HOBO +U30 +Weather +,2013-08-20 20:50:00,
2013-08-20 14:55:00,92.8,35.0,-100.00,South,181,2.9,7.4,13,0.00,,,-99.99,676.0,HOBO +U30 +Weather +,2013-08-20 20:55:00,
2013-08-20 15:00:00,92.1,34.2,-100.00,SSE,164,6.7,10.1,13,0.00,,,-99.99,666.0,HOBO +U30 +Weather +,2013-08-20 21:00:00,
2013-08-20 15:05:00,92.1,33.6,-100.00,SE,138,4.5,8.5,12,0.00,,,-99.99,651.0,HOBO +U30 +Weather +,2013-08-20 21:05:00,
2013-08-20 15:10:00,92.3,33.6,-100.00,South,183,6.3,9.6,12,0.00,,,-99.99,653.0,HOBO +U30 +Weather +,2013-08-20 21:10:00,
2013-08-20 15:15:00,93.7,34.3,-100.00,South,170,3.4,7.4,12,0.00,,,-99.99,644.0,HOBO +U30 +Weather +,2013-08-20 21:15:00,
2013-08-20 15:20:00,92.9,34.2,-100.00,SSE,161,4.5,10.1,12,0.00,,,-99.99,611.0,HOBO +U30 +Weather +,2013-08-20 21:20:00,
2013-08-20 15:25:00,93.5,33.7,-100.00,South,187,4.5,10.1,12,0.00,,,-99.99,618.0,HOBO +U30 +Weather +,2013-08-20 21:25:00,
2013-08-20 15:30:00,93.6,33.4,-100.00,South,187,5.1,10.7,12,0.00,,,-99.99,623.0,HOBO +U30 +Weather +,2013-08-20 21:30:00,
2013-08-20 15:43:00,92.7,32.3,-100.00,South,180,5.6,10.1,11,0.00,,,-99.99,599.0,HOBO +U30 +Weather +,2013-08-20 21:43:00,
2013-08-20 15:45:00,93.2,31.8,-100.00,South,187,8.5,12.3,11,0.00,,,-99.99,572.0,HOBO +U30 +Weather +,2013-08-20 21:45:00,
2013-08-20 15:50:00,93.5,32.2,-100.00,South,183,6.7,14.1,11,0.00,,,-99.99,574.0,HOBO +U30 +Weather +,2013-08-20 21:50:00,
2013-08-20 15:55:00,94.4,32.5,-100.00,SSW,195,2.2,6.3,11,0.00,,,-99.99,562.0,HOBO +U30 +Weather +,2013-08-20 21:55:00,
2013-08-20 16:00:00,93.8,30.9,-100.00,SW,223,2.2,6.7,10,0.00,,,-99.99,521.0,HOBO +U30 +Weather +,2013-08-20 22:00:00,
2013-08-20 16:05:00,94.1,32.3,-100.00,WSW,251,2.2,7.4,11,0.00,,,-99.99,546.0,HOBO +U30 +Weather +,2013-08-20 22:05:00,
2013-08-20 16:10:00,94.3,31.8,-100.00,SSW,211,4.0,7.4,11,0.00,,,-99.99,498.0,HOBO +U30 +Weather +,2013-08-20 22:10:00,
2013-08-20 16:15:00,94.5,32.6,-100.00,SSW,205,3.4,8.5,11,0.00,,,-99.99,526.0,HOBO +U30 +Weather +,2013-08-20 22:15:00,
2013-08-20 16:20:00,94.4,31.4,-100.00,South,174,3.4,5.6,10,0.00,,,-99.99,511.0,HOBO +U30 +Weather +,2013-08-20 22:20:00,
2013-08-20 16:25:00,94.7,31.8,-100.00,SE,129,1.8,5.6,10,0.00,,,-99.99,493.0,HOBO +U30 +Weather +,2013-08-20 22:25:00,
2013-08-20 16:30:00,95.8,32.2,-100.00,SE,140,1.8,4.5,10,0.00,,,-99.99,479.0,HOBO +U30 +Weather +,2013-08-20 22:30:00,
2013-08-20 16:42:00,95.7,32.1,-100.00,SSE,152,2.2,4.5,10,0.00,,,-99.99,466.0,HOBO +U30 +Weather +,2013-08-20 22:42:00,
2013-08-20 16:45:00,95.3,31.4,-100.00,ENE,72,1.1,4.0,10,0.00,,,-99.99,469.0,HOBO +U30 +Weather +,2013-08-20 22:45:00,
2013-08-20 16:50:00,94.2,32.4,-100.00,NNE,22,3.4,8.5,11,0.00,,,-99.99,412.0,HOBO +U30 +Weather +,2013-08-20 22:50:00,
2013-08-20 16:55:00,94.2,35.1,-100.00,NNW,336,4.0,7.8,12,0.00,,,-99.99,414.0,HOBO +U30 +Weather +,2013-08-20 22:55:00,
2013-08-20 17:00:00,93.9,34.0,-100.00,NW,316,4.0,7.4,12,0.00,,,-99.99,419.0,HOBO +U30 +Weather +,2013-08-20 23:00:00,
2013-08-20 17:05:00,93.8,35.2,-100.00,NNW,343,4.0,7.8,12,0.00,,,-99.99,412.0,HOBO +U30 +Weather +,2013-08-20 23:05:00,
2013-08-20 17:10:00,94.7,31.4,-100.00,NNE,14,5.1,8.9,10,0.00,,,-99.99,418.0,HOBO +U30 +Weather +,2013-08-20 23:10:00,
2013-08-20 17:15:00,94.1,31.6,-100.00,NE,34,6.3,10.1,11,0.00,,,-99.99,417.0,HOBO +U30 +Weather +,2013-08-20 23:15:00,
2013-08-20 17:20:00,95.7,32.1,-100.00,North,1,2.9,6.7,10,0.00,,,-99.99,422.0,HOBO +U30 +Weather +,2013-08-20 23:20:00,
2013-08-20 17:25:00,94.2,31.3,-100.00,NE,39,6.3,11.2,10,0.00,,,-99.99,414.0,HOBO +U30 +Weather +,2013-08-20 23:25:00,
2013-08-20 17:30:00,94.7,31.4,-100.00,NNE,32,5.6,10.1,10,0.00,,,-99.99,401.0,HOBO +U30 +Weather +,2013-08-20 23:30:00,
2013-08-20 17:40:00,94.7,31.4,-100.00,NE,35,6.7,10.1,10,0.00,,,-99.99,383.0,HOBO +U30 +Weather +,2013-08-20 23:40:00,
2013-08-20 17:45:00,94.7,32.3,-100.00,NNE,29,6.7,10.7,11,0.00,,,-99.99,337.0,HOBO +U30 +Weather +,2013-08-20 23:45:00,
2013-08-20 17:50:00,94.2,33.2,-100.00,NE,38,8.5,12.3,11,0.00,,,-99.99,314.0,HOBO +U30 +Weather +,2013-08-20 23:50:00,
2013-08-20 17:55:00,95.0,33.6,-100.00,NE,44,6.3,11.2,11,0.00,,,-99.99,313.0,HOBO +U30 +Weather +,2013-08-20 23:55:00,
2013-08-20 18:00:00,94.9,33.5,-100.00,NNE,32,6.3,8.9,11,0.00,,,-99.99,304.0,HOBO +U30 +Weather +,2013-08-21 00:00:00,
2013-08-20 18:05:00,94.4,34.6,-100.00,NE,34,6.7,9.6,12,0.00,,,-99.99,289.0,HOBO +U30 +Weather +,2013-08-21 00:05:00,
2013-08-20 18:10:00,94.4,31.9,-100.00,NE,42,6.3,8.5,11,0.00,,,-99.99,276.0,HOBO +U30 +Weather +,2013-08-21 00:10:00,
2013-08-20 18:15:00,94.9,32.4,-100.00,NE,46,5.6,7.8,11,0.00,,,-99.99,269.0,HOBO +U30 +Weather +,2013-08-21 00:15:00,
2013-08-20 18:20:00,94.5,32.1,-100.00,NE,42,6.7,8.5,11,0.00,,,-99.99,261.0,HOBO +U30 +Weather +,2013-08-21 00:20:00,
2013-08-20 18:25:00,94.5,32.4,-100.00,NE,52,4.5,7.8,11,0.00,,,-99.99,246.0,HOBO +U30 +Weather +,2013-08-21 00:25:00,
2013-08-20 18:39:00,94.8,31.7,-100.00,ENE,58,4.0,6.3,10,0.00,,,-99.99,228.0,HOBO +U30 +Weather +,2013-08-21 00:39:00,
2013-08-20 18:40:00,95.2,31.0,-100.00,SSE,152,4.5,7.4,10,0.00,,,-99.99,207.0,HOBO +U30 +Weather +,2013-08-21 00:40:00,
2013-08-20 18:45:00,95.1,31.0,-100.00,SSE,152,4.5,7.8,10,0.00,,,-99.99,196.0,HOBO +U30 +Weather +,2013-08-21 00:45:00,
2013-08-20 18:50:00,95.3,30.7,-100.00,South,171,3.4,6.3,10,0.00,,,-99.99,179.0,HOBO +U30 +Weather +,2013-08-21 00:50:00,
2013-08-20 18:55:00,95.5,30.8,-100.00,South,181,2.2,4.5,10,0.00,,,-99.99,159.0,HOBO +U30 +Weather +,2013-08-21 00:55:00,
2013-08-20 19:00:00,95.9,31.8,-100.00,South,191,1.1,2.9,10,0.00,,,-99.99,152.0,HOBO +U30 +Weather +,2013-08-21 01:00:00,
2013-08-20 19:05:00,95.8,31.0,-100.00,SSW,206,1.1,2.9,10,0.00,,,-99.99,136.0,HOBO +U30 +Weather +,2013-08-21 01:05:00,
2013-08-20 19:10:00,95.6,31.3,-100.00,SSW,197,0.7,2.2,10,0.00,,,-99.99,118.0,HOBO +U30 +Weather +,2013-08-21 01:10:00,
2013-08-20 19:15:00,94.6,31.8,-100.00,SSE,149,2.9,5.1,10,0.00,,,-99.99,97.0,HOBO +U30 +Weather +,2013-08-21 01:15:00,
2013-08-20 19:20:00,94.3,32.6,-100.00,SSE,157,2.2,5.1,11,0.00,,,-99.99,96.0,HOBO +U30 +Weather +,2013-08-21 01:20:00,
2013-08-20 19:25:00,93.7,32.6,-100.00,SSE,149,2.9,5.1,11,0.00,,,-99.99,82.0,HOBO +U30 +Weather +,2013-08-21 01:25:00,
2013-08-20 19:38:00,93.8,32.7,-100.00,SE,129,0.0,2.2,11,0.00,,,-99.99,71.0,HOBO +U30 +Weather +,2013-08-21 01:38:00,
2013-08-20 19:40:00,92.9,34.7,-100.00,NE,41,0.0,2.2,12,0.00,,,-99.99,42.0,HOBO +U30 +Weather +,2013-08-21 01:40:00,
2013-08-20 19:45:00,91.7,35.8,-100.00,North,355,0.7,4.5,14,0.00,,,-99.99,23.0,HOBO +U30 +Weather +,2013-08-21 01:45:00,
2013-08-20 19:50:00,90.7,36.9,-100.00,NNW,345,0.7,3.4,15,0.00,,,-99.99,19.0,HOBO +U30 +Weather +,2013-08-21 01:50:00,
2013-08-20 19:55:00,90.5,38.1,-100.00,North,355,1.8,4.0,15,0.00,,,-99.99,13.0,HOBO +U30 +Weather +,2013-08-21 01:55:00,
2013-08-20 20:00:00,90.4,36.9,-100.00,North,0,1.1,2.2,15,0.00,,,-99.99,11.0,HOBO +U30 +Weather +,2013-08-21 02:00:00,
2013-08-20 20:05:00,90.9,37.2,-100.00,North,0,0.7,1.8,15,0.00,,,-99.99,9.0,HOBO +U30 +Weather +,2013-08-21 02:05:00,
2013-08-20 20:10:00,90.3,36.1,-100.00,North,1,0.7,2.2,14,0.00,,,-99.99,4.0,HOBO +U30 +Weather +,2013-08-21 02:10:00,
2013-08-20 20:15:00,89.8,34.5,-100.00,SE,139,2.9,6.7,14,0.00,,,-99.99,3.0,HOBO +U30 +Weather +,2013-08-21 02:15:00,
2013-08-20 20:20:00,89.2,35.2,-100.00,SSE,161,5.1,9.6,14,0.00,,,-99.99,2.0,HOBO +U30 +Weather +,2013-08-21 02:20:00,
2013-08-20 20:25:00,88.5,34.9,-100.00,SSE,163,5.6,8.5,14,0.00,,,-99.99,1.0,HOBO +U30 +Weather +,2013-08-21 02:25:00,
2013-08-20 20:36:00,88.0,35.0,-100.00,SSE,166,4.5,6.7,15,0.00,,,-99.99,1.0,HOBO +U30 +Weather +,2013-08-21 02:36:00,
2013-08-20 20:40:00,87.3,34.9,-100.00,South,170,4.5,6.7,15,0.00,,,-99.99,1.0,HOBO +U30 +Weather +,2013-08-21 02:40:00,
2013-08-20 20:45:00,86.8,34.8,-100.00,SSE,164,4.0,6.3,15,0.00,,,-99.99,1.0,HOBO +U30 +Weather +,2013-08-21 02:45:00,
2013-08-20 20:50:00,86.3,34.9,-100.00,SSE,156,5.6,7.4,16,0.00,,,-99.99,1.0,HOBO +U30 +Weather +,2013-08-21 02:50:00,
2013-08-20 20:55:00,85.6,35.4,-100.00,SSE,156,5.6,7.4,16,0.00,,,-99.99,1.0,HOBO +U30 +Weather +,2013-08-21 02:55:00,
2013-08-20 21:00:00,85.0,35.7,-100.00,SSE,168,4.0,6.3,17,0.00,,,-99.99,1.0,HOBO +U30 +Weather +,2013-08-21 03:00:00,
2013-08-20 21:05:00,85.6,34.8,-100.00,South,174,2.2,5.1,16,0.00,,,-99.99,1.0,HOBO +U30 +Weather +,2013-08-21 03:05:00,
2013-08-20 21:10:00,84.2,37.9,-100.00,South,174,0.0,1.8,19,0.00,,,-99.99,1.0,HOBO +U30 +Weather +,2013-08-21 03:10:00,
2013-08-20 21:15:00,85.1,35.9,-100.00,NW,309,2.9,4.0,17,0.00,,,-99.99,1.0,HOBO +U30 +Weather +,2013-08-21 03:15:00,
2013-08-20 21:20:00,85.0,35.2,-100.00,NW,324,0.7,2.9,16,0.00,,,-99.99,1.0,HOBO +U30 +Weather +,2013-08-21 03:20:00,
2013-08-20 21:25:00,85.2,35.1,-100.00,NW,324,0.0,1.1,16,0.00,,,-99.99,1.0,HOBO +U30 +Weather +,2013-08-21 03:25:00,
2013-08-20 21:35:00,85.7,35.3,-100.00,NW,324,1.1,3.4,16,0.00,,,-99.99,1.0,HOBO +U30 +Weather +,2013-08-21 03:35:00,
2013-08-20 21:40:00,84.6,36.3,-100.00,WNW,289,1.1,3.4,17,0.00,,,-99.99,1.0,HOBO +U30 +Weather +,2013-08-21 03:40:00,
2013-08-20 21:45:00,83.2,38.3,-100.00,South,190,0.0,2.9,20,0.00,,,-99.99,1.0,HOBO +U30 +Weather +,2013-08-21 03:45:00,
2013-08-20 21:50:00,82.3,37.2,-100.00,South,191,0.0,1.8,19,0.00,,,-99.99,1.0,HOBO +U30 +Weather +,2013-08-21 03:50:00,
2013-08-20 21:55:00,82.4,38.1,-100.00,SSW,192,0.0,1.8,20,0.00,,,-99.99,1.0,HOBO +U30 +Weather +,2013-08-21 03:55:00,
2013-08-20 22:00:00,82.3,37.3,-100.00,West,270,1.1,2.9,20,0.00,,,-99.99,1.0,HOBO +U30 +Weather +,2013-08-21 04:00:00,
2013-08-20 22:05:00,82.9,36.7,-100.00,North,355,4.0,5.6,19,0.00,,,-99.99,1.0,HOBO +U30 +Weather +,2013-08-21 04:05:00,
2013-08-20 22:10:00,81.6,39.5,-100.00,NE,37,5.1,6.7,22,0.00,,,-99.99,1.0,HOBO +U30 +Weather +,2013-08-21 04:10:00,
2013-08-20 22:15:00,78.5,42.2,-100.00,NE,46,7.4,10.1,27,0.00,,,-99.99,1.0,HOBO +U30 +Weather +,2013-08-21 04:15:00,
2013-08-20 22:20:00,78.0,42.3,-100.00,NE,39,5.6,7.8,28,0.00,,,-99.99,1.0,HOBO +U30 +Weather +,2013-08-21 04:20:00,
2013-08-20 22:34:00,78.3,41.0,-100.00,NNE,28,6.3,9.6,26,0.00,,,-99.99,1.0,HOBO +U30 +Weather +,2013-08-21 04:34:00,
2013-08-20 22:35:00,79.2,40.4,-100.00,North,7,4.0,9.6,25,0.00,,,-99.99,1.0,HOBO +U30 +Weather +,2013-08-21 04:35:00,
2013-08-20 22:40:00,79.3,40.5,-100.00,North,7,6.3,8.9,25,0.00,,,-99.99,1.0,HOBO +U30 +Weather +,2013-08-21 04:40:00,
2013-08-20 22:45:00,79.1,41.6,-100.00,North,8,7.4,10.7,26,0.00,,,-99.99,1.0,HOBO +U30 +Weather +,2013-08-21 04:45:00,
2013-08-20 22:50:00,79.3,42.8,-100.00,North,11,10.1,15.9,27,0.00,,,-99.99,1.0,HOBO +U30 +Weather +,2013-08-21 04:50:00,
2013-08-20 22:55:00,78.2,42.9,-100.00,North,7,8.9,13.4,28,0.00,,,-99.99,1.0,HOBO +U30 +Weather +,2013-08-21 04:55:00,
2013-08-20 23:00:00,77.8,43.4,-100.00,North,8,6.7,10.1,29,0.00,,,-99.99,1.0,HOBO +U30 +Weather +,2013-08-21 05:00:00,
2013-08-20 23:05:00,77.6,43.6,-100.00,North,10,7.4,10.1,29,0.00,,,-99.99,1.0,HOBO +U30 +Weather +,2013-08-21 05:05:00,
2013-08-20 23:10:00,77.6,43.5,-100.00,North,8,7.4,12.3,29,0.00,,,-99.99,1.0,HOBO +U30 +Weather +,2013-08-21 05:10:00,
2013-08-20 23:15:00,77.5,43.6,-100.00,North,8,7.4,11.9,29,0.00,,,-99.99,1.0,HOBO +U30 +Weather +,2013-08-21 05:15:00,
2013-08-20 23:20:00,77.3,43.8,-100.00,North,4,8.5,13.0,30,0.00,,,-99.99,1.0,HOBO +U30 +Weather +,2013-08-21 05:20:00,
2013-08-20 23:25:00,77.2,43.9,-100.00,North,7,7.4,11.2,30,0.00,,,-99.99,1.0,HOBO +U30 +Weather +,2013-08-21 05:25:00,
2013-08-20 23:30:00,77.3,43.9,-100.00,North,4,7.8,12.3,30,0.00,,,-99.99,1.0,HOBO +U30 +Weather +,2013-08-21 05:30:00,
2013-08-20 23:35:00,76.9,44.0,-100.00,North,11,7.4,10.7,30,0.00,,,-99.99,1.0,HOBO +U30 +Weather +,2013-08-21 05:35:00,
2013-08-20 23:40:00,76.8,44.0,-100.00,NNE,13,7.4,11.2,31,0.00,,,-99.99,1.0,HOBO +U30 +Weather +,2013-08-21 05:40:00,
2013-08-20 23:45:00,76.6,44.1,-100.00,North,8,6.7,10.1,31,0.00,,,-99.99,1.0,HOBO +U30 +Weather +,2013-08-21 05:45:00,
2013-08-20 23:50:00,76.3,44.0,-100.00,North,7,7.8,10.7,31,0.00,,,-99.99,1.0,HOBO +U30 +Weather +,2013-08-21 05:50:00,
2013-08-20 23:55:00,76.1,44.1,-100.00,North,4,6.7,10.7,31,0.00,,,-99.99,1.0,HOBO +U30 +Weather +,2013-08-21 05:55:00,